sensor_id;sensor_type;location;lat;lon;timestamp;temperature;humidity
69031;DHT22;56083;48.774;8.942;2023-05-14T00:01:52;10.20;99.90
69031;DHT22;56083;48.774;8.942;2023-05-14T00:04:17;10.10;99.90
69031;DHT22;56083;48.774;8.942;2023-05-14T00:06:46;10.20;99.90
69031;DHT22;56083;48.774;8.942;2023-05-14T00:09:11;10.20;99.90
69031;DHT22;56083;48.774;8.942;2023-05-14T00:11:37;10.20;99.90
69031;DHT22;56083;48.774;8.942;2023-05-14T00:14:03;10.20;99.90
69031;DHT22;56083;48.774;8.942;2023-05-14T00:16:28;10.10;99.90
69031;DHT22;56083;48.774;8.942;2023-05-14T00:18:54;10.10;99.90
69031;DHT22;56083;48.774;8.942;2023-05-14T00:21:20;10.20;99.90
69031;DHT22;56083;48.774;8.942;2023-05-14T00:23:45;10.20;99.90
69031;DHT22;56083;48.774;8.942;2023-05-14T00:26:11;10.20;99.90
69031;DHT22;56083;48.774;8.942;2023-05-14T00:28:37;10.20;99.90
69031;DHT22;56083;48.774;8.942;2023-05-14T00:31:02;10.30;99.90
69031;DHT22;56083;48.774;8.942;2023-05-14T00:33:28;10.30;99.90
69031;DHT22;56083;48.774;8.942;2023-05-14T00:35:54;10.30;99.90
69031;DHT22;56083;48.774;8.942;2023-05-14T00:38:19;10.30;99.90
69031;DHT22;56083;48.774;8.942;2023-05-14T00:40:45;10.30;99.90
69031;DHT22;56083;48.774;8.942;2023-05-14T00:43:20;10.30;99.90
69031;DHT22;56083;48.774;8.942;2023-05-14T00:45:50;10.30;99.90
69031;DHT22;56083;48.774;8.942;2023-05-14T00:48:16;10.30;99.90
69031;DHT22;56083;48.774;8.942;2023-05-14T00:50:42;10.30;99.90
69031;DHT22;56083;48.774;8.942;2023-05-14T00:53:08;10.30;99.90
69031;DHT22;56083;48.774;8.942;2023-05-14T00:55:40;10.20;99.90
69031;DHT22;56083;48.774;8.942;2023-05-14T00:58:09;10.20;99.90
69031;DHT22;56083;48.774;8.942;2023-05-14T01:00:35;10.20;99.90
69031;DHT22;56083;48.774;8.942;2023-05-14T01:03:05;10.10;99.90
69031;DHT22;56083;48.774;8.942;2023-05-14T01:05:57;10.10;99.90
69031;DHT22;56083;48.774;8.942;2023-05-14T01:11:04;9.90;99.90
69031;DHT22;56083;48.774;8.942;2023-05-14T01:16:03;9.90;99.90
69031;DHT22;56083;48.774;8.942;2023-05-14T01:18:31;9.80;99.90
69031;DHT22;56083;48.774;8.942;2023-05-14T01:20:56;9.80;99.90
69031;DHT22;56083;48.774;8.942;2023-05-14T01:23:22;9.80;99.90
69031;DHT22;56083;48.774;8.942;2023-05-14T01:25:48;9.70;99.90
69031;DHT22;56083;48.774;8.942;2023-05-14T01:28:22;9.70;99.90
69031;DHT22;56083;48.774;8.942;2023-05-14T01:30:56;9.70;99.90
69031;DHT22;56083;48.774;8.942;2023-05-14T01:33:26;9.70;99.90
69031;DHT22;56083;48.774;8.942;2023-05-14T01:35:54;9.70;99.90
69031;DHT22;56083;48.774;8.942;2023-05-14T01:38:20;9.70;99.90
69031;DHT22;56083;48.774;8.942;2023-05-14T01:40:48;9.70;99.90
69031;DHT22;56083;48.774;8.942;2023-05-14T01:43:15;9.70;99.90
69031;DHT22;56083;48.774;8.942;2023-05-14T01:45:41;9.70;99.90
69031;DHT22;56083;48.774;8.942;2023-05-14T01:48:08;9.70;99.90
69031;DHT22;56083;48.774;8.942;2023-05-14T01:50:33;9.70;99.90
69031;DHT22;56083;48.774;8.942;2023-05-14T01:52:59;9.70;99.90
69031;DHT22;56083;48.774;8.942;2023-05-14T01:55:25;9.70;99.90
69031;DHT22;56083;48.774;8.942;2023-05-14T01:57:51;9.70;99.90
69031;DHT22;56083;48.774;8.942;2023-05-14T02:00:17;9.70;99.90
69031;DHT22;56083;48.774;8.942;2023-05-14T02:02:43;9.60;99.90
69031;DHT22;56083;48.774;8.942;2023-05-14T02:05:10;9.50;99.90
69031;DHT22;56083;48.774;8.942;2023-05-14T02:07:36;9.40;99.90
69031;DHT22;56083;48.774;8.942;2023-05-14T02:10:01;9.40;99.90
69031;DHT22;56083;48.774;8.942;2023-05-14T02:12:27;9.30;99.90
69031;DHT22;56083;48.774;8.942;2023-05-14T02:14:52;9.20;99.90
69031;DHT22;56083;48.774;8.942;2023-05-14T02:17:19;9.10;99.90
69031;DHT22;56083;48.774;8.942;2023-05-14T02:19:44;9.10;99.90
69031;DHT22;56083;48.774;8.942;2023-05-14T02:22:11;9.00;99.90
69031;DHT22;56083;48.774;8.942;2023-05-14T02:24:37;8.90;99.90
69031;DHT22;56083;48.774;8.942;2023-05-14T02:27:03;8.90;99.90
69031;DHT22;56083;48.774;8.942;2023-05-14T02:29:28;8.80;99.90
69031;DHT22;56083;48.774;8.942;2023-05-14T02:31:55;8.70;99.90
69031;DHT22;56083;48.774;8.942;2023-05-14T02:34:20;8.70;99.90
69031;DHT22;56083;48.774;8.942;2023-05-14T02:36:46;8.70;99.90
69031;DHT22;56083;48.774;8.942;2023-05-14T02:39:11;8.70;99.90
69031;DHT22;56083;48.774;8.942;2023-05-14T02:41:37;8.70;99.90
69031;DHT22;56083;48.774;8.942;2023-05-14T02:44:03;8.60;99.90
69031;DHT22;56083;48.774;8.942;2023-05-14T02:46:30;8.60;99.90
69031;DHT22;56083;48.774;8.942;2023-05-14T02:48:55;8.60;99.90
69031;DHT22;56083;48.774;8.942;2023-05-14T02:51:21;8.50;99.90
69031;DHT22;56083;48.774;8.942;2023-05-14T02:53:47;8.60;99.90
69031;DHT22;56083;48.774;8.942;2023-05-14T02:56:13;8.60;99.90
69031;DHT22;56083;48.774;8.942;2023-05-14T02:58:38;8.60;99.90
69031;DHT22;56083;48.774;8.942;2023-05-14T03:01:04;8.60;99.90
69031;DHT22;56083;48.774;8.942;2023-05-14T03:03:30;8.70;99.90
69031;DHT22;56083;48.774;8.942;2023-05-14T03:05:56;8.70;99.90
69031;DHT22;56083;48.774;8.942;2023-05-14T03:08:21;8.70;99.90
69031;DHT22;56083;48.774;8.942;2023-05-14T03:10:47;8.70;99.90
69031;DHT22;56083;48.774;8.942;2023-05-14T03:13:12;8.70;99.90
69031;DHT22;56083;48.774;8.942;2023-05-14T03:15:42;8.70;99.90
69031;DHT22;56083;48.774;8.942;2023-05-14T03:18:08;8.70;99.90
69031;DHT22;56083;48.774;8.942;2023-05-14T03:20:33;8.70;99.90
69031;DHT22;56083;48.774;8.942;2023-05-14T03:22:59;8.70;99.90
69031;DHT22;56083;48.774;8.942;2023-05-14T03:25:25;8.70;99.90
69031;DHT22;56083;48.774;8.942;2023-05-14T03:27:50;8.70;99.90
69031;DHT22;56083;48.774;8.942;2023-05-14T03:30:16;8.80;99.90
69031;DHT22;56083;48.774;8.942;2023-05-14T03:32:42;8.80;99.90
69031;DHT22;56083;48.774;8.942;2023-05-14T03:35:08;8.80;99.90
69031;DHT22;56083;48.774;8.942;2023-05-14T03:37:34;8.90;99.90
69031;DHT22;56083;48.774;8.942;2023-05-14T03:39:59;8.90;99.90
69031;DHT22;56083;48.774;8.942;2023-05-14T03:42:25;8.90;99.90
69031;DHT22;56083;48.774;8.942;2023-05-14T03:44:51;8.90;99.90
69031;DHT22;56083;48.774;8.942;2023-05-14T03:47:17;8.90;99.90
69031;DHT22;56083;48.774;8.942;2023-05-14T03:49:42;8.90;99.90
69031;DHT22;56083;48.774;8.942;2023-05-14T03:52:08;8.90;99.90
69031;DHT22;56083;48.774;8.942;2023-05-14T03:54:33;8.90;99.90
69031;DHT22;56083;48.774;8.942;2023-05-14T03:56:59;8.90;99.90
69031;DHT22;56083;48.774;8.942;2023-05-14T03:59:26;8.90;99.90
69031;DHT22;56083;48.774;8.942;2023-05-14T04:01:51;8.90;99.90
69031;DHT22;56083;48.774;8.942;2023-05-14T04:04:17;8.90;99.90
69031;DHT22;56083;48.774;8.942;2023-05-14T04:06:43;9.00;99.90
69031;DHT22;56083;48.774;8.942;2023-05-14T04:09:08;8.90;99.90
69031;DHT22;56083;48.774;8.942;2023-05-14T04:11:36;9.00;99.90
69031;DHT22;56083;48.774;8.942;2023-05-14T04:14:02;9.00;99.90
69031;DHT22;56083;48.774;8.942;2023-05-14T04:16:27;9.00;99.90
69031;DHT22;56083;48.774;8.942;2023-05-14T04:18:53;9.00;99.90
69031;DHT22;56083;48.774;8.942;2023-05-14T04:21:19;9.00;99.90
69031;DHT22;56083;48.774;8.942;2023-05-14T04:23:47;9.10;99.90
69031;DHT22;56083;48.774;8.942;2023-05-14T04:26:13;9.10;99.90
69031;DHT22;56083;48.774;8.942;2023-05-14T04:28:38;9.10;99.90
69031;DHT22;56083;48.774;8.942;2023-05-14T04:31:04;9.20;99.90
69031;DHT22;56083;48.774;8.942;2023-05-14T04:33:30;9.20;99.90
69031;DHT22;56083;48.774;8.942;2023-05-14T04:35:56;9.20;99.90
69031;DHT22;56083;48.774;8.942;2023-05-14T04:38:21;9.20;99.90
69031;DHT22;56083;48.774;8.942;2023-05-14T04:40:47;9.20;99.90
69031;DHT22;56083;48.774;8.942;2023-05-14T04:43:13;9.30;99.90
69031;DHT22;56083;48.774;8.942;2023-05-14T04:45:38;9.30;99.90
69031;DHT22;56083;48.774;8.942;2023-05-14T04:48:05;9.30;99.90
69031;DHT22;56083;48.774;8.942;2023-05-14T04:50:32;9.30;99.90
69031;DHT22;56083;48.774;8.942;2023-05-14T04:52:58;9.40;99.90
69031;DHT22;56083;48.774;8.942;2023-05-14T04:55:24;9.40;99.90
69031;DHT22;56083;48.774;8.942;2023-05-14T04:57:50;9.40;99.90
69031;DHT22;56083;48.774;8.942;2023-05-14T05:00:16;9.50;99.90
69031;DHT22;56083;48.774;8.942;2023-05-14T05:02:42;9.50;99.90
69031;DHT22;56083;48.774;8.942;2023-05-14T05:05:08;9.60;99.90
69031;DHT22;56083;48.774;8.942;2023-05-14T05:07:34;9.60;99.90
69031;DHT22;56083;48.774;8.942;2023-05-14T05:10:00;9.70;99.90
69031;DHT22;56083;48.774;8.942;2023-05-14T05:12:25;9.70;99.90
69031;DHT22;56083;48.774;8.942;2023-05-14T05:14:57;9.70;99.90
69031;DHT22;56083;48.774;8.942;2023-05-14T05:17:23;9.80;99.90
69031;DHT22;56083;48.774;8.942;2023-05-14T05:19:49;9.90;99.90
69031;DHT22;56083;48.774;8.942;2023-05-14T05:22:15;9.80;99.90
69031;DHT22;56083;48.774;8.942;2023-05-14T05:24:41;9.90;99.90
69031;DHT22;56083;48.774;8.942;2023-05-14T05:27:06;9.90;99.90
69031;DHT22;56083;48.774;8.942;2023-05-14T05:29:33;9.90;99.90
69031;DHT22;56083;48.774;8.942;2023-05-14T05:31:59;10.00;99.90
69031;DHT22;56083;48.774;8.942;2023-05-14T05:34:25;10.00;99.90
69031;DHT22;56083;48.774;8.942;2023-05-14T05:36:51;10.10;99.90
69031;DHT22;56083;48.774;8.942;2023-05-14T05:39:17;10.20;99.90
69031;DHT22;56083;48.774;8.942;2023-05-14T05:41:42;10.30;99.90
69031;DHT22;56083;48.774;8.942;2023-05-14T05:44:08;10.30;99.90
69031;DHT22;56083;48.774;8.942;2023-05-14T05:46:34;10.40;99.90
69031;DHT22;56083;48.774;8.942;2023-05-14T05:49:00;10.60;99.90
69031;DHT22;56083;48.774;8.942;2023-05-14T05:51:25;10.70;99.90
69031;DHT22;56083;48.774;8.942;2023-05-14T05:53:51;10.80;99.90
69031;DHT22;56083;48.774;8.942;2023-05-14T05:56:16;10.90;99.90
69031;DHT22;56083;48.774;8.942;2023-05-14T05:58:42;11.00;99.90
69031;DHT22;56083;48.774;8.942;2023-05-14T06:01:08;11.20;99.90
69031;DHT22;56083;48.774;8.942;2023-05-14T06:03:33;11.30;99.90
69031;DHT22;56083;48.774;8.942;2023-05-14T06:05:59;11.30;99.90
69031;DHT22;56083;48.774;8.942;2023-05-14T06:08:25;11.50;99.90
69031;DHT22;56083;48.774;8.942;2023-05-14T06:10:50;11.60;99.90
69031;DHT22;56083;48.774;8.942;2023-05-14T06:13:16;11.70;99.90
69031;DHT22;56083;48.774;8.942;2023-05-14T06:15:42;11.70;99.90
69031;DHT22;56083;48.774;8.942;2023-05-14T06:18:07;11.80;99.90
69031;DHT22;56083;48.774;8.942;2023-05-14T06:20:33;11.80;99.90
69031;DHT22;56083;48.774;8.942;2023-05-14T06:22:59;11.80;99.90
69031;DHT22;56083;48.774;8.942;2023-05-14T06:25:24;11.90;99.90
69031;DHT22;56083;48.774;8.942;2023-05-14T06:27:50;11.80;99.90
69031;DHT22;56083;48.774;8.942;2023-05-14T06:30:15;11.90;99.90
69031;DHT22;56083;48.774;8.942;2023-05-14T06:32:41;11.80;99.90
69031;DHT22;56083;48.774;8.942;2023-05-14T06:35:07;11.90;99.90
69031;DHT22;56083;48.774;8.942;2023-05-14T06:37:33;12.00;99.90
69031;DHT22;56083;48.774;8.942;2023-05-14T06:39:59;12.00;99.90
69031;DHT22;56083;48.774;8.942;2023-05-14T06:42:25;12.00;99.90
69031;DHT22;56083;48.774;8.942;2023-05-14T06:44:51;12.10;99.90
69031;DHT22;56083;48.774;8.942;2023-05-14T06:47:16;12.30;99.90
69031;DHT22;56083;48.774;8.942;2023-05-14T06:49:42;12.40;99.90
69031;DHT22;56083;48.774;8.942;2023-05-14T06:52:07;12.50;99.90
69031;DHT22;56083;48.774;8.942;2023-05-14T06:54:33;12.70;99.90
69031;DHT22;56083;48.774;8.942;2023-05-14T06:56:59;13.00;99.90
69031;DHT22;56083;48.774;8.942;2023-05-14T06:59:24;13.20;99.90
69031;DHT22;56083;48.774;8.942;2023-05-14T07:01:50;13.40;99.90
69031;DHT22;56083;48.774;8.942;2023-05-14T07:04:16;13.60;99.90
69031;DHT22;56083;48.774;8.942;2023-05-14T07:06:41;13.70;99.90
69031;DHT22;56083;48.774;8.942;2023-05-14T07:09:07;13.90;99.90
69031;DHT22;56083;48.774;8.942;2023-05-14T07:11:33;14.00;99.90
69031;DHT22;56083;48.774;8.942;2023-05-14T07:13:59;14.20;99.90
69031;DHT22;56083;48.774;8.942;2023-05-14T07:16:25;14.30;99.90
69031;DHT22;56083;48.774;8.942;2023-05-14T07:18:50;14.40;99.90
69031;DHT22;56083;48.774;8.942;2023-05-14T07:21:16;14.30;99.90
69031;DHT22;56083;48.774;8.942;2023-05-14T07:23:42;14.50;99.90
69031;DHT22;56083;48.774;8.942;2023-05-14T07:26:07;14.40;99.90
69031;DHT22;56083;48.774;8.942;2023-05-14T07:28:35;14.30;99.90
69031;DHT22;56083;48.774;8.942;2023-05-14T07:31:00;14.40;99.90
69031;DHT22;56083;48.774;8.942;2023-05-14T07:33:26;14.40;99.90
69031;DHT22;56083;48.774;8.942;2023-05-14T07:35:52;14.50;99.90
69031;DHT22;56083;48.774;8.942;2023-05-14T07:38:19;14.50;99.90
69031;DHT22;56083;48.774;8.942;2023-05-14T07:40:45;14.40;99.90
69031;DHT22;56083;48.774;8.942;2023-05-14T07:43:11;14.50;99.90
69031;DHT22;56083;48.774;8.942;2023-05-14T07:45:37;14.60;99.90
69031;DHT22;56083;48.774;8.942;2023-05-14T07:48:03;14.80;99.90
69031;DHT22;56083;48.774;8.942;2023-05-14T07:50:29;15.10;99.90
69031;DHT22;56083;48.774;8.942;2023-05-14T07:52:55;15.30;99.90
69031;DHT22;56083;48.774;8.942;2023-05-14T07:55:21;15.20;99.90
69031;DHT22;56083;48.774;8.942;2023-05-14T07:57:47;15.10;99.90
69031;DHT22;56083;48.774;8.942;2023-05-14T08:00:13;15.30;99.90
69031;DHT22;56083;48.774;8.942;2023-05-14T08:02:38;15.40;99.90
69031;DHT22;56083;48.774;8.942;2023-05-14T08:05:06;15.50;99.90
69031;DHT22;56083;48.774;8.942;2023-05-14T08:07:31;15.60;99.90
69031;DHT22;56083;48.774;8.942;2023-05-14T08:09:58;15.70;99.90
69031;DHT22;56083;48.774;8.942;2023-05-14T08:12:23;15.80;99.90
69031;DHT22;56083;48.774;8.942;2023-05-14T08:14:49;15.80;99.90
69031;DHT22;56083;48.774;8.942;2023-05-14T08:17:16;16.00;99.90
69031;DHT22;56083;48.774;8.942;2023-05-14T08:19:42;16.00;99.90
69031;DHT22;56083;48.774;8.942;2023-05-14T08:22:07;16.20;99.90
69031;DHT22;56083;48.774;8.942;2023-05-14T08:24:33;16.20;99.90
69031;DHT22;56083;48.774;8.942;2023-05-14T08:26:59;16.40;99.90
69031;DHT22;56083;48.774;8.942;2023-05-14T08:29:25;16.50;99.90
69031;DHT22;56083;48.774;8.942;2023-05-14T08:31:50;16.90;99.90
69031;DHT22;56083;48.774;8.942;2023-05-14T08:34:16;17.10;99.90
69031;DHT22;56083;48.774;8.942;2023-05-14T08:36:42;17.10;99.90
69031;DHT22;56083;48.774;8.942;2023-05-14T08:39:07;17.60;99.90
69031;DHT22;56083;48.774;8.942;2023-05-14T08:41:33;18.20;99.90
69031;DHT22;56083;48.774;8.942;2023-05-14T08:44:11;18.80;99.90
69031;DHT22;56083;48.774;8.942;2023-05-14T08:46:43;20.00;99.90
69031;DHT22;56083;48.774;8.942;2023-05-14T08:49:38;21.60;99.90
69031;DHT22;56083;48.774;8.942;2023-05-14T08:52:05;23.10;99.90
69031;DHT22;56083;48.774;8.942;2023-05-14T08:54:31;24.10;99.90
69031;DHT22;56083;48.774;8.942;2023-05-14T08:56:57;25.40;99.90
69031;DHT22;56083;48.774;8.942;2023-05-14T08:59:24;26.10;99.90
69031;DHT22;56083;48.774;8.942;2023-05-14T09:01:52;26.20;99.90
69031;DHT22;56083;48.774;8.942;2023-05-14T09:04:23;27.10;99.90
69031;DHT22;56083;48.774;8.942;2023-05-14T09:06:51;26.70;99.90
69031;DHT22;56083;48.774;8.942;2023-05-14T09:09:17;26.70;99.90
69031;DHT22;56083;48.774;8.942;2023-05-14T09:11:47;27.20;99.90
69031;DHT22;56083;48.774;8.942;2023-05-14T09:14:12;26.70;99.90
69031;DHT22;56083;48.774;8.942;2023-05-14T09:16:39;25.70;99.90
69031;DHT22;56083;48.774;8.942;2023-05-14T09:19:07;25.60;99.90
69031;DHT22;56083;48.774;8.942;2023-05-14T09:21:33;25.80;99.90
69031;DHT22;56083;48.774;8.942;2023-05-14T09:23:59;25.20;99.90
69031;DHT22;56083;48.774;8.942;2023-05-14T09:26:26;25.10;99.90
69031;DHT22;56083;48.774;8.942;2023-05-14T09:28:56;24.80;99.90
69031;DHT22;56083;48.774;8.942;2023-05-14T09:31:24;24.30;99.90
69031;DHT22;56083;48.774;8.942;2023-05-14T09:33:51;23.60;99.90
69031;DHT22;56083;48.774;8.942;2023-05-14T09:36:17;23.30;99.90
69031;DHT22;56083;48.774;8.942;2023-05-14T09:38:43;23.30;99.90
69031;DHT22;56083;48.774;8.942;2023-05-14T09:41:09;23.50;99.90
69031;DHT22;56083;48.774;8.942;2023-05-14T09:43:35;24.10;99.90
69031;DHT22;56083;48.774;8.942;2023-05-14T09:46:00;24.90;99.90
69031;DHT22;56083;48.774;8.942;2023-05-14T09:48:26;25.70;99.90
69031;DHT22;56083;48.774;8.942;2023-05-14T09:50:51;26.70;99.90
69031;DHT22;56083;48.774;8.942;2023-05-14T09:53:17;27.30;99.80
69031;DHT22;56083;48.774;8.942;2023-05-14T09:55:44;26.60;99.90
69031;DHT22;56083;48.774;8.942;2023-05-14T09:58:10;25.00;99.90
69031;DHT22;56083;48.774;8.942;2023-05-14T10:00:36;24.70;99.90
69031;DHT22;56083;48.774;8.942;2023-05-14T10:03:06;23.80;99.90
69031;DHT22;56083;48.774;8.942;2023-05-14T10:05:36;23.40;99.90
69031;DHT22;56083;48.774;8.942;2023-05-14T10:08:09;23.30;99.90
69031;DHT22;56083;48.774;8.942;2023-05-14T10:10:37;23.40;99.90
69031;DHT22;56083;48.774;8.942;2023-05-14T10:13:04;23.50;99.90
69031;DHT22;56083;48.774;8.942;2023-05-14T10:16:00;24.10;99.90
69031;DHT22;56083;48.774;8.942;2023-05-14T10:18:34;24.70;99.90
69031;DHT22;56083;48.774;8.942;2023-05-14T10:21:05;25.30;99.90
69031;DHT22;56083;48.774;8.942;2023-05-14T10:23:32;26.70;99.90
69031;DHT22;56083;48.774;8.942;2023-05-14T10:25:58;27.20;99.90
69031;DHT22;56083;48.774;8.942;2023-05-14T10:28:25;26.60;99.90
69031;DHT22;56083;48.774;8.942;2023-05-14T10:30:51;25.80;99.90
69031;DHT22;56083;48.774;8.942;2023-05-14T10:33:16;25.10;99.90
69031;DHT22;56083;48.774;8.942;2023-05-14T10:36:05;24.40;99.90
69031;DHT22;56083;48.774;8.942;2023-05-14T10:38:33;23.60;99.90
69031;DHT22;56083;48.774;8.942;2023-05-14T10:41:01;23.50;99.90
69031;DHT22;56083;48.774;8.942;2023-05-14T10:43:27;23.20;99.90
69031;DHT22;56083;48.774;8.942;2023-05-14T10:45:56;23.30;99.90
69031;DHT22;56083;48.774;8.942;2023-05-14T10:48:23;23.40;99.90
69031;DHT22;56083;48.774;8.942;2023-05-14T10:50:51;23.50;99.90
69031;DHT22;56083;48.774;8.942;2023-05-14T10:53:18;23.00;99.90
69031;DHT22;56083;48.774;8.942;2023-05-14T10:55:44;23.10;99.90
69031;DHT22;56083;48.774;8.942;2023-05-14T10:58:10;23.60;99.90
69031;DHT22;56083;48.774;8.942;2023-05-14T11:00:37;24.80;99.90
69031;DHT22;56083;48.774;8.942;2023-05-14T11:03:04;26.40;99.90
69031;DHT22;56083;48.774;8.942;2023-05-14T11:05:30;27.90;97.00
69031;DHT22;56083;48.774;8.942;2023-05-14T11:07:56;28.70;96.00
69031;DHT22;56083;48.774;8.942;2023-05-14T11:10:22;29.10;94.30
69031;DHT22;56083;48.774;8.942;2023-05-14T11:12:50;30.00;93.30
69031;DHT22;56083;48.774;8.942;2023-05-14T11:15:19;31.00;88.20
69031;DHT22;56083;48.774;8.942;2023-05-14T11:17:46;31.20;88.70
69031;DHT22;56083;48.774;8.942;2023-05-14T11:20:13;30.90;86.30
69031;DHT22;56083;48.774;8.942;2023-05-14T11:22:40;30.40;85.60
69031;DHT22;56083;48.774;8.942;2023-05-14T11:25:06;29.40;86.20
69031;DHT22;56083;48.774;8.942;2023-05-14T11:27:37;28.20;89.30
69031;DHT22;56083;48.774;8.942;2023-05-14T11:30:03;28.90;88.90
69031;DHT22;56083;48.774;8.942;2023-05-14T11:32:32;29.20;90.20
69031;DHT22;56083;48.774;8.942;2023-05-14T11:34:58;29.30;90.00
69031;DHT22;56083;48.774;8.942;2023-05-14T11:37:23;29.40;88.50
69031;DHT22;56083;48.774;8.942;2023-05-14T11:39:51;29.90;88.40
69031;DHT22;56083;48.774;8.942;2023-05-14T11:42:17;30.40;86.60
69031;DHT22;56083;48.774;8.942;2023-05-14T11:44:48;29.80;85.50
69031;DHT22;56083;48.774;8.942;2023-05-14T11:47:15;29.00;86.40
69031;DHT22;56083;48.774;8.942;2023-05-14T11:49:41;28.00;87.30
69031;DHT22;56083;48.774;8.942;2023-05-14T11:52:08;27.00;88.10
69031;DHT22;56083;48.774;8.942;2023-05-14T11:54:39;26.20;91.20
69031;DHT22;56083;48.774;8.942;2023-05-14T11:57:10;25.90;92.20
69031;DHT22;56083;48.774;8.942;2023-05-14T11:59:36;25.80;91.50
69031;DHT22;56083;48.774;8.942;2023-05-14T12:02:03;25.70;91.50
69031;DHT22;56083;48.774;8.942;2023-05-14T12:04:31;25.70;92.70
69031;DHT22;56083;48.774;8.942;2023-05-14T12:06:59;25.40;92.60
69031;DHT22;56083;48.774;8.942;2023-05-14T12:09:25;26.60;92.80
69031;DHT22;56083;48.774;8.942;2023-05-14T12:11:51;27.80;91.40
69031;DHT22;56083;48.774;8.942;2023-05-14T12:14:23;29.20;89.00
69031;DHT22;56083;48.774;8.942;2023-05-14T12:16:50;29.80;85.90
69031;DHT22;56083;48.774;8.942;2023-05-14T12:19:18;29.70;81.70
69031;DHT22;56083;48.774;8.942;2023-05-14T12:21:48;28.30;83.30
69031;DHT22;56083;48.774;8.942;2023-05-14T12:24:16;27.40;87.30
69031;DHT22;56083;48.774;8.942;2023-05-14T12:26:46;27.60;87.10
69031;DHT22;56083;48.774;8.942;2023-05-14T12:29:14;27.00;86.70
69031;DHT22;56083;48.774;8.942;2023-05-14T12:31:47;25.90;88.40
69031;DHT22;56083;48.774;8.942;2023-05-14T12:34:13;25.60;90.60
69031;DHT22;56083;48.774;8.942;2023-05-14T12:36:39;25.80;90.60
69031;DHT22;56083;48.774;8.942;2023-05-14T12:39:04;25.50;90.70
69031;DHT22;56083;48.774;8.942;2023-05-14T12:41:30;25.80;91.10
69031;DHT22;56083;48.774;8.942;2023-05-14T12:43:56;25.50;90.60
69031;DHT22;56083;48.774;8.942;2023-05-14T12:46:22;24.60;92.40
69031;DHT22;56083;48.774;8.942;2023-05-14T12:48:48;25.20;93.20
69031;DHT22;56083;48.774;8.942;2023-05-14T12:51:14;26.30;92.60
69031;DHT22;56083;48.774;8.942;2023-05-14T12:53:39;27.40;90.90
69031;DHT22;56083;48.774;8.942;2023-05-14T12:56:05;28.10;87.90
69031;DHT22;56083;48.774;8.942;2023-05-14T12:58:31;29.00;84.80
69031;DHT22;56083;48.774;8.942;2023-05-14T13:00:57;30.00;84.00
69031;DHT22;56083;48.774;8.942;2023-05-14T13:03:23;30.30;81.40
69031;DHT22;56083;48.774;8.942;2023-05-14T13:05:50;29.40;80.50
69031;DHT22;56083;48.774;8.942;2023-05-14T13:08:16;27.30;83.40
69031;DHT22;56083;48.774;8.942;2023-05-14T13:10:43;25.30;89.80
69031;DHT22;56083;48.774;8.942;2023-05-14T13:13:10;23.90;91.70
69031;DHT22;56083;48.774;8.942;2023-05-14T13:15:36;22.90;93.40
69031;DHT22;56083;48.774;8.942;2023-05-14T13:18:02;22.10;94.40
69031;DHT22;56083;48.774;8.942;2023-05-14T13:20:28;21.50;96.30
69031;DHT22;56083;48.774;8.942;2023-05-14T13:22:55;21.30;97.10
69031;DHT22;56083;48.774;8.942;2023-05-14T13:25:21;21.50;98.60
69031;DHT22;56083;48.774;8.942;2023-05-14T13:27:47;21.90;98.30
69031;DHT22;56083;48.774;8.942;2023-05-14T13:30:16;22.50;97.30
69031;DHT22;56083;48.774;8.942;2023-05-14T13:32:42;22.60;96.90
69031;DHT22;56083;48.774;8.942;2023-05-14T13:35:08;22.30;96.40
69031;DHT22;56083;48.774;8.942;2023-05-14T13:37:34;21.80;97.40
69031;DHT22;56083;48.774;8.942;2023-05-14T13:40:00;21.50;98.00
69031;DHT22;56083;48.774;8.942;2023-05-14T13:42:26;21.60;98.60
69031;DHT22;56083;48.774;8.942;2023-05-14T13:44:51;22.00;98.20
69031;DHT22;56083;48.774;8.942;2023-05-14T13:47:17;22.80;97.50
69031;DHT22;56083;48.774;8.942;2023-05-14T13:49:42;23.60;96.30
69031;DHT22;56083;48.774;8.942;2023-05-14T13:52:08;23.50;95.70
69031;DHT22;56083;48.774;8.942;2023-05-14T13:54:34;22.90;95.70
69031;DHT22;56083;48.774;8.942;2023-05-14T13:56:59;22.10;96.90
69031;DHT22;56083;48.774;8.942;2023-05-14T13:59:25;21.70;98.00
69031;DHT22;56083;48.774;8.942;2023-05-14T14:01:50;21.00;98.70
69031;DHT22;56083;48.774;8.942;2023-05-14T14:04:16;20.60;99.40
69031;DHT22;56083;48.774;8.942;2023-05-14T14:06:42;20.20;99.20
69031;DHT22;56083;48.774;8.942;2023-05-14T14:09:08;20.00;99.70
69031;DHT22;56083;48.774;8.942;2023-05-14T14:11:34;19.70;99.90
69031;DHT22;56083;48.774;8.942;2023-05-14T14:13:59;19.50;99.90
69031;DHT22;56083;48.774;8.942;2023-05-14T14:16:25;19.20;99.90
69031;DHT22;56083;48.774;8.942;2023-05-14T14:18:51;19.20;99.90
69031;DHT22;56083;48.774;8.942;2023-05-14T14:21:16;19.00;99.90
69031;DHT22;56083;48.774;8.942;2023-05-14T14:23:45;19.00;99.90
69031;DHT22;56083;48.774;8.942;2023-05-14T14:26:11;19.00;99.90
69031;DHT22;56083;48.774;8.942;2023-05-14T14:28:37;19.10;99.90
69031;DHT22;56083;48.774;8.942;2023-05-14T14:31:03;19.20;99.90
69031;DHT22;56083;48.774;8.942;2023-05-14T14:33:28;19.00;99.90
69031;DHT22;56083;48.774;8.942;2023-05-14T14:35:57;18.70;99.90
69031;DHT22;56083;48.774;8.942;2023-05-14T14:38:23;18.50;99.90
69031;DHT22;56083;48.774;8.942;2023-05-14T14:40:49;18.20;99.90
69031;DHT22;56083;48.774;8.942;2023-05-14T14:43:16;18.10;99.90
69031;DHT22;56083;48.774;8.942;2023-05-14T14:45:41;17.90;99.90
69031;DHT22;56083;48.774;8.942;2023-05-14T14:48:38;17.90;99.90
69031;DHT22;56083;48.774;8.942;2023-05-14T14:51:06;17.80;99.90
69031;DHT22;56083;48.774;8.942;2023-05-14T14:53:33;17.90;99.90
69031;DHT22;56083;48.774;8.942;2023-05-14T14:55:59;18.20;99.90
69031;DHT22;56083;48.774;8.942;2023-05-14T14:58:25;18.40;99.90
69031;DHT22;56083;48.774;8.942;2023-05-14T15:00:55;18.80;99.90
69031;DHT22;56083;48.774;8.942;2023-05-14T15:03:22;19.90;99.90
69031;DHT22;56083;48.774;8.942;2023-05-14T15:05:48;20.50;99.90
69031;DHT22;56083;48.774;8.942;2023-05-14T15:08:14;21.40;99.90
69031;DHT22;56083;48.774;8.942;2023-05-14T15:10:39;22.70;99.90
69031;DHT22;56083;48.774;8.942;2023-05-14T15:13:06;24.00;99.40
69031;DHT22;56083;48.774;8.942;2023-05-14T15:15:35;25.30;96.70
69031;DHT22;56083;48.774;8.942;2023-05-14T15:18:01;25.90;94.90
69031;DHT22;56083;48.774;8.942;2023-05-14T15:20:27;27.00;93.10
69031;DHT22;56083;48.774;8.942;2023-05-14T15:22:53;27.30;92.50
69031;DHT22;56083;48.774;8.942;2023-05-14T15:25:20;27.20;90.60
69031;DHT22;56083;48.774;8.942;2023-05-14T15:27:46;26.60;91.20
69031;DHT22;56083;48.774;8.942;2023-05-14T15:30:12;26.00;91.30
69031;DHT22;56083;48.774;8.942;2023-05-14T15:32:38;25.00;91.70
69031;DHT22;56083;48.774;8.942;2023-05-14T15:35:04;24.10;92.50
69031;DHT22;56083;48.774;8.942;2023-05-14T15:37:38;22.80;94.60